createdAt,value
2018-08-30T00:00:56.777Z,1008.46
2018-08-30T00:01:56.753Z,1008.40
2018-08-30T00:02:56.938Z,1008.42
2018-08-30T00:03:56.911Z,1008.38
2018-08-30T00:04:56.887Z,1008.37
2018-08-30T00:05:56.664Z,1008.36
2018-08-30T00:06:56.639Z,1008.34
2018-08-30T00:07:56.818Z,1008.38
2018-08-30T00:08:56.794Z,1008.33
2018-08-30T00:09:56.569Z,1008.41
2018-08-30T00:10:56.545Z,1008.37
2018-08-30T00:11:56.823Z,1008.37
2018-08-30T00:12:56.504Z,1008.39
2018-08-30T00:13:56.479Z,1008.35
2018-08-30T00:14:56.456Z,1008.38
2018-08-30T00:15:56.435Z,1008.39
2018-08-30T00:16:56.613Z,1008.36
2018-08-30T00:17:56.435Z,1008.37
2018-08-30T00:18:56.360Z,1008.35
2018-08-30T00:19:56.339Z,1008.34
2018-08-30T00:20:56.319Z,1008.39
2018-08-30T00:21:56.300Z,1008.39
2018-08-30T00:22:56.280Z,1008.44
2018-08-30T00:23:56.260Z,1008.38
2018-08-30T00:24:56.226Z,1008.43
2018-08-30T00:25:56.203Z,1008.41
2018-08-30T00:26:56.179Z,1008.45
2018-08-30T00:27:56.158Z,1008.52
2018-08-30T00:34:33.550Z,1008.60
2018-08-30T00:35:33.531Z,1008.57
2018-08-30T00:36:33.304Z,1008.58
2018-08-30T00:37:33.274Z,1008.61
2018-08-30T00:38:33.259Z,1008.60
2018-08-30T00:39:33.427Z,1008.59
2018-08-30T00:41:15.572Z,1008.52
2018-08-30T00:42:15.537Z,1008.54
2018-08-30T00:43:15.310Z,1008.52
2018-08-30T00:44:15.486Z,1008.45
2018-08-30T00:45:18.691Z,1008.56
2018-08-30T00:46:18.060Z,1008.52
2018-08-30T00:47:15.416Z,1008.55
2018-08-30T00:48:15.394Z,1008.53
2018-08-30T00:49:15.377Z,1008.53
2018-08-30T00:50:15.348Z,1008.54
2018-08-30T00:51:15.321Z,1008.54
2018-08-30T00:52:15.297Z,1008.49
2018-08-30T00:53:15.273Z,1008.47
2018-08-30T00:54:15.048Z,1008.55
2018-08-30T00:55:15.226Z,1008.57
2018-08-30T00:56:15.000Z,1008.63
2018-08-30T00:57:14.978Z,1008.59
2018-08-30T00:58:15.158Z,1008.59
2018-08-30T00:59:14.929Z,1008.62
2018-08-30T01:00:14.911Z,1008.58
2018-08-30T01:01:14.884Z,1008.59
2018-08-30T01:02:15.062Z,1008.59
2018-08-30T01:03:14.848Z,1008.55
2018-08-30T01:04:15.017Z,1008.61
2018-08-30T01:05:14.790Z,1008.60
2018-08-30T01:06:14.764Z,1008.56
2018-08-30T01:07:14.744Z,1008.58
2018-08-30T01:08:14.727Z,1008.58
2018-08-30T01:09:15.151Z,1008.61
2018-08-30T01:10:14.670Z,1008.53
2018-08-30T01:11:14.648Z,1008.56
2018-08-30T01:12:14.628Z,1008.61
2018-08-30T01:13:14.602Z,1008.55
2018-08-30T01:14:14.577Z,1008.61
2018-08-30T01:15:14.554Z,1008.59
2018-08-30T01:16:14.730Z,1008.57
2018-08-30T01:17:17.328Z,1008.60
2018-08-30T01:18:14.687Z,1008.60
2018-08-30T01:19:14.461Z,1008.65
2018-08-30T01:20:14.636Z,1008.59
2018-08-30T01:21:14.614Z,1008.54
2018-08-30T01:22:14.387Z,1008.53
2018-08-30T01:23:14.565Z,1008.61
2018-08-30T01:24:14.543Z,1008.59
2018-08-30T01:25:14.315Z,1008.59
2018-08-30T01:26:14.292Z,1008.50
2018-08-30T01:27:14.266Z,1008.62
2018-08-30T01:28:14.253Z,1008.64
2018-08-30T01:29:14.219Z,1008.65
2018-08-30T01:30:14.197Z,1008.67
2018-08-30T01:31:14.171Z,1008.66
2018-08-30T01:32:14.154Z,1008.59
2018-08-30T01:33:14.577Z,1008.62
2018-08-30T01:34:14.309Z,1008.70
2018-08-30T01:35:14.284Z,1008.72
2018-08-30T01:36:14.254Z,1008.73
2018-08-30T01:37:14.234Z,1008.69
2018-08-30T01:38:56.659Z,1008.72
2018-08-30T01:39:56.336Z,1008.72
2018-08-30T01:40:56.310Z,1008.72
2018-08-30T01:41:56.132Z,1008.70
2018-08-30T01:42:56.060Z,1008.69
2018-08-30T01:43:56.050Z,1008.78
2018-08-30T01:44:56.012Z,1008.75
2018-08-30T01:45:55.993Z,1008.71
2018-08-30T01:46:56.168Z,1008.78
2018-08-30T01:47:56.143Z,1008.76
2018-08-30T01:48:56.121Z,1008.72
2018-08-30T01:49:55.896Z,1008.75
2018-08-30T01:51:40.845Z,1008.71
2018-08-30T01:52:37.999Z,1008.76
2018-08-30T01:53:37.973Z,1008.74
2018-08-30T01:54:37.956Z,1008.81
2018-08-30T01:56:20.079Z,1008.82
2018-08-30T01:57:20.261Z,1008.85
2018-08-30T01:58:20.237Z,1008.88
2018-08-30T01:59:20.207Z,1008.84
2018-08-30T02:00:20.183Z,1008.85
2018-08-30T02:01:20.158Z,1008.90
2018-08-30T02:02:20.135Z,1008.91
2018-08-30T02:03:20.113Z,1008.90
2018-08-30T02:04:19.893Z,1008.94
2018-08-30T02:05:19.873Z,1008.93
2018-08-30T02:06:19.839Z,1008.96
2018-08-30T02:07:19.819Z,1008.96
2018-08-30T02:08:19.789Z,1008.97
2018-08-30T02:09:19.765Z,1009.00
2018-08-30T02:10:19.743Z,1009.04
2018-08-30T02:11:19.718Z,1009.00
2018-08-30T02:12:19.697Z,1008.92
2018-08-30T02:13:20.884Z,1009.00
2018-08-30T02:14:19.647Z,1009.04
2018-08-30T02:15:19.627Z,1009.09
2018-08-30T02:16:19.600Z,1009.11
2018-08-30T02:17:19.576Z,1009.06
2018-08-30T02:18:19.554Z,1009.11
2018-08-30T02:19:19.532Z,1009.14
2018-08-30T02:20:19.505Z,1009.09
2018-08-30T02:21:19.491Z,1009.15
2018-08-30T02:22:19.461Z,1009.12
2018-08-30T02:23:19.435Z,1009.13
2018-08-30T02:24:19.410Z,1009.16
2018-08-30T02:25:19.386Z,1009.12
2018-08-30T02:26:19.364Z,1009.15
2018-08-30T02:27:19.340Z,1009.10
2018-08-30T02:28:19.316Z,1009.14
2018-08-30T02:29:19.295Z,1009.09
2018-08-30T02:30:19.269Z,1009.13
2018-08-30T02:31:19.246Z,1009.06
2018-08-30T02:32:19.421Z,1009.13
2018-08-30T02:33:19.194Z,1009.14
2018-08-30T02:34:19.171Z,1009.14
2018-08-30T02:36:01.502Z,1009.04
2018-08-30T02:37:43.632Z,1009.09
2018-08-30T02:38:43.404Z,1008.98
2018-08-30T02:40:28.358Z,1009.10
2018-08-30T02:42:11.087Z,1008.99
2018-08-30T02:43:07.834Z,1009.02
2018-08-30T02:44:10.733Z,1008.98
2018-08-30T02:45:07.783Z,1009.12
2018-08-30T02:46:07.557Z,1009.10
2018-08-30T02:47:07.736Z,1009.06
2018-08-30T02:48:07.708Z,1009.12
2018-08-30T02:49:07.742Z,1009.17
2018-08-30T02:50:49.812Z,1009.05
2018-08-30T02:51:49.788Z,1008.97
2018-08-30T02:52:49.561Z,1009.07
2018-08-30T02:53:49.533Z,1009.09
2018-08-30T02:54:49.507Z,1009.09
2018-08-30T02:55:49.689Z,1009.07
2018-08-30T02:56:49.459Z,1009.07
2018-08-30T02:57:49.434Z,1009.05
2018-08-30T02:58:49.411Z,1009.06
2018-08-30T02:59:49.385Z,1009.11
2018-08-30T03:00:49.359Z,1009.12
2018-08-30T03:01:49.333Z,1009.11
2018-08-30T03:02:49.511Z,1009.13
2018-08-30T03:03:49.283Z,1009.13
2018-08-30T03:04:49.258Z,1009.12
2018-08-30T03:05:49.233Z,1009.13
2018-08-30T03:06:49.209Z,1009.09
2018-08-30T03:07:49.183Z,1009.16
2018-08-30T03:08:49.159Z,1009.19
2018-08-30T03:09:49.139Z,1009.17
2018-08-30T03:10:49.111Z,1009.20
2018-08-30T03:11:49.088Z,1009.24
2018-08-30T03:12:49.060Z,1009.22
2018-08-30T03:13:49.038Z,1009.22
2018-08-30T03:14:49.012Z,1009.23
2018-08-30T03:15:48.995Z,1009.29
2018-08-30T03:16:48.962Z,1009.28
2018-08-30T03:17:48.936Z,1009.24
2018-08-30T03:18:48.911Z,1009.32
2018-08-30T03:19:48.886Z,1009.34
2018-08-30T03:20:49.063Z,1009.31
2018-08-30T03:21:48.837Z,1009.30
2018-08-30T03:22:49.016Z,1009.34
2018-08-30T03:23:48.788Z,1009.42
2018-08-30T03:24:48.762Z,1009.38
2018-08-30T03:25:48.735Z,1009.36
2018-08-30T03:26:48.712Z,1009.44
2018-08-30T03:27:48.685Z,1009.42
2018-08-30T03:28:48.660Z,1009.43
2018-08-30T03:29:48.635Z,1009.39
2018-08-30T03:30:48.697Z,1009.46
2018-08-30T03:31:48.587Z,1009.44
2018-08-30T03:32:48.563Z,1009.47
2018-08-30T03:33:48.539Z,1009.51
2018-08-30T03:34:48.509Z,1009.53
2018-08-30T03:35:48.686Z,1009.48
2018-08-30T03:36:48.458Z,1009.59
2018-08-30T03:37:48.433Z,1009.62
2018-08-30T03:38:48.410Z,1009.64
2018-08-30T03:39:48.385Z,1009.63
2018-08-30T03:40:48.358Z,1009.63
2018-08-30T03:41:48.333Z,1009.67
2018-08-30T03:42:48.310Z,1009.52
2018-08-30T03:43:48.484Z,1009.58
2018-08-30T03:44:48.459Z,1009.70
2018-08-30T03:45:48.232Z,1009.69
2018-08-30T03:46:48.284Z,1009.75
2018-08-30T03:47:48.181Z,1009.80
2018-08-30T03:48:48.156Z,1009.76
2018-08-30T03:49:48.133Z,1009.80
2018-08-30T03:50:48.107Z,1009.83
2018-08-30T03:51:48.080Z,1009.81
2018-08-30T03:52:48.060Z,1009.85
2018-08-30T03:53:48.030Z,1009.79
2018-08-30T03:54:48.011Z,1009.83
2018-08-30T03:55:47.980Z,1009.84
2018-08-30T03:56:47.955Z,1009.83
2018-08-30T03:57:47.930Z,1009.77
2018-08-30T03:58:47.905Z,1009.86
2018-08-30T03:59:47.884Z,1009.82
2018-08-30T04:00:47.856Z,1009.85
2018-08-30T04:01:47.829Z,1009.79
2018-08-30T04:02:47.855Z,1009.80
2018-08-30T04:03:47.778Z,1009.75
2018-08-30T04:04:47.754Z,1009.82
2018-08-30T04:05:47.734Z,1009.82
2018-08-30T04:06:47.705Z,1009.78
2018-08-30T04:07:47.682Z,1009.75
2018-08-30T04:08:47.855Z,1009.76
2018-08-30T04:09:47.640Z,1009.78
2018-08-30T04:10:47.603Z,1009.75
2018-08-30T04:11:47.579Z,1009.73
2018-08-30T04:12:47.553Z,1009.79
2018-08-30T04:13:47.532Z,1009.76
2018-08-30T04:14:47.502Z,1009.77
2018-08-30T04:15:47.476Z,1009.76
2018-08-30T04:16:47.451Z,1009.79
2018-08-30T04:17:47.427Z,1009.84
2018-08-30T04:18:47.401Z,1009.81
2018-08-30T04:19:47.377Z,1009.82
2018-08-30T04:20:47.351Z,1009.80
2018-08-30T04:21:47.326Z,1009.82
2018-08-30T04:22:47.306Z,1009.80
2018-08-30T04:23:47.275Z,1009.79
2018-08-30T04:24:47.250Z,1009.74
2018-08-30T04:25:47.224Z,1009.75
2018-08-30T04:26:47.199Z,1009.73
2018-08-30T04:27:47.174Z,1009.76
2018-08-30T04:28:47.149Z,1009.79
2018-08-30T04:29:47.127Z,1009.81
2018-08-30T04:30:47.099Z,1009.80
2018-08-30T04:31:47.073Z,1009.78
2018-08-30T04:32:47.048Z,1009.80
2018-08-30T04:33:47.023Z,1009.80
2018-08-30T04:34:46.998Z,1009.82
2018-08-30T04:35:46.972Z,1009.85
2018-08-30T04:36:46.949Z,1009.86
2018-08-30T04:37:46.920Z,1009.85
2018-08-30T04:38:47.152Z,1009.86
2018-08-30T04:39:46.869Z,1009.89
2018-08-30T04:40:46.848Z,1009.90
2018-08-30T04:41:46.820Z,1009.92
2018-08-30T04:42:46.867Z,1009.93
2018-08-30T04:43:46.770Z,1009.93
2018-08-30T04:44:46.744Z,1009.91
2018-08-30T04:45:46.724Z,1009.96
2018-08-30T04:46:46.697Z,1009.96
2018-08-30T04:47:46.671Z,1009.99
2018-08-30T04:48:46.645Z,1009.95
2018-08-30T04:49:46.619Z,1009.95
2018-08-30T04:50:46.894Z,1010.06
2018-08-30T04:51:46.570Z,1010.02
2018-08-30T04:52:46.544Z,1010.02
2018-08-30T04:53:46.523Z,1010.00
2018-08-30T04:54:46.497Z,1010.05
2018-08-30T04:55:46.469Z,1009.98
2018-08-30T04:56:46.447Z,1009.96
2018-08-30T04:57:46.422Z,1009.98
2018-08-30T04:58:46.399Z,1009.98
2018-08-30T04:59:46.371Z,1010.03
2018-08-30T05:00:46.344Z,1009.97
2018-08-30T05:01:46.358Z,1010.02
2018-08-30T05:02:46.293Z,1009.96
2018-08-30T05:03:46.268Z,1010.02
2018-08-30T05:04:46.242Z,1009.97
2018-08-30T05:05:46.229Z,1009.96
2018-08-30T05:06:46.199Z,1009.99
2018-08-30T05:07:46.217Z,1009.89
2018-08-30T05:08:46.143Z,1009.96
2018-08-30T05:09:46.117Z,1009.93
2018-08-30T05:10:46.095Z,1009.90
2018-08-30T05:11:46.067Z,1009.99
2018-08-30T05:12:46.045Z,1010.01
2018-08-30T05:13:46.016Z,1009.94
2018-08-30T05:14:45.991Z,1009.98
2018-08-30T05:15:45.966Z,1009.95
2018-08-30T05:16:45.942Z,1009.99
2018-08-30T05:17:45.918Z,1010.00
2018-08-30T05:18:45.893Z,1009.98
2018-08-30T05:19:45.867Z,1009.99
2018-08-30T05:20:45.850Z,1010.00
2018-08-30T05:21:45.814Z,1009.97
2018-08-30T05:22:45.791Z,1010.00
2018-08-30T05:23:45.765Z,1010.04
2018-08-30T05:24:45.740Z,1010.01
2018-08-30T05:25:45.719Z,1009.96
2018-08-30T05:26:45.691Z,1009.91
2018-08-30T05:27:45.666Z,1009.90
2018-08-30T05:28:45.643Z,1009.76
2018-08-30T05:29:45.644Z,1009.93
2018-08-30T05:30:45.596Z,1009.93
2018-08-30T05:31:45.566Z,1009.87
2018-08-30T05:32:45.544Z,1009.90
2018-08-30T05:33:45.514Z,1009.97
2018-08-30T05:34:45.488Z,1009.93
2018-08-30T05:35:45.516Z,1009.92
2018-08-30T05:36:45.438Z,1009.98
2018-08-30T05:37:45.414Z,1009.92
2018-08-30T05:38:45.390Z,1009.96
2018-08-30T05:39:45.368Z,1009.97
2018-08-30T05:40:45.343Z,1010.02
2018-08-30T05:41:45.315Z,1009.96
2018-08-30T05:42:45.287Z,1009.98
2018-08-30T05:43:45.261Z,1009.96
2018-08-30T05:44:45.415Z,1009.99
2018-08-30T05:45:45.212Z,1009.95
2018-08-30T05:46:45.189Z,1009.93
2018-08-30T05:47:45.165Z,1010.00
2018-08-30T05:48:45.136Z,1009.98
2018-08-30T05:49:45.121Z,1009.98
2018-08-30T05:50:45.089Z,1009.99
2018-08-30T05:51:45.063Z,1010.00
2018-08-30T05:52:45.044Z,1009.98
2018-08-30T05:53:45.011Z,1009.97
2018-08-30T05:54:44.987Z,1010.01
2018-08-30T05:55:44.960Z,1010.04
2018-08-30T05:56:44.979Z,1010.02
2018-08-30T05:57:44.915Z,1009.99
2018-08-30T05:58:44.887Z,1010.07
2018-08-30T05:59:44.861Z,1010.05
2018-08-30T06:00:44.838Z,1010.01
2018-08-30T06:01:44.811Z,1010.02
2018-08-30T06:02:44.785Z,1009.99
2018-08-30T06:03:44.760Z,1010.04
2018-08-30T06:04:44.747Z,1009.98
2018-08-30T06:05:44.714Z,1010.02
2018-08-30T06:06:44.688Z,1010.03
2018-08-30T06:07:44.663Z,1010.04
2018-08-30T06:08:44.640Z,1010.09
2018-08-30T06:09:44.615Z,1010.08
2018-08-30T06:10:44.588Z,1010.11
2018-08-30T06:11:44.561Z,1010.06
2018-08-30T06:12:44.536Z,1010.09
2018-08-30T06:13:44.513Z,1010.06
2018-08-30T06:14:44.489Z,1010.13
2018-08-30T06:15:44.467Z,1010.14
2018-08-30T06:16:44.438Z,1010.12
2018-08-30T06:17:44.430Z,1010.16
2018-08-30T06:18:44.388Z,1010.14
2018-08-30T06:19:44.363Z,1010.15
2018-08-30T06:20:44.338Z,1010.16
2018-08-30T06:21:44.311Z,1010.18
2018-08-30T06:22:44.287Z,1010.17
2018-08-30T06:23:44.264Z,1010.17
2018-08-30T06:24:44.237Z,1010.18
2018-08-30T06:25:44.215Z,1010.18
2018-08-30T06:26:44.200Z,1010.22
2018-08-30T06:27:44.166Z,1010.19
2018-08-30T06:28:44.140Z,1010.21
2018-08-30T06:29:44.113Z,1010.20
2018-08-30T06:30:44.089Z,1010.23
2018-08-30T06:31:44.073Z,1010.21
2018-08-30T06:32:44.104Z,1010.23
2018-08-30T06:33:44.014Z,1010.25
2018-08-30T06:34:44.069Z,1010.31
2018-08-30T06:35:43.964Z,1010.27
2018-08-30T06:36:43.943Z,1010.27
2018-08-30T06:37:43.916Z,1010.31
2018-08-30T06:38:43.971Z,1010.28
2018-08-30T06:39:43.867Z,1010.31
2018-08-30T06:40:43.841Z,1010.27
2018-08-30T06:41:43.818Z,1010.34
2018-08-30T06:42:43.791Z,1010.34
2018-08-30T06:43:44.017Z,1010.30
2018-08-30T06:44:43.745Z,1010.42
2018-08-30T06:45:43.719Z,1010.33
2018-08-30T06:46:43.698Z,1010.34
2018-08-30T06:47:43.668Z,1010.40
2018-08-30T06:48:43.749Z,1010.43
2018-08-30T06:49:43.621Z,1010.39
2018-08-30T06:50:43.596Z,1010.43
2018-08-30T06:51:43.569Z,1010.37
2018-08-30T06:52:43.546Z,1010.41
2018-08-30T06:53:43.521Z,1010.35
2018-08-30T06:54:43.494Z,1010.37
2018-08-30T06:55:43.477Z,1010.33
2018-08-30T06:56:43.445Z,1010.43
2018-08-30T06:57:43.424Z,1010.44
2018-08-30T06:58:43.398Z,1010.48
2018-08-30T06:59:43.384Z,1010.42
2018-08-30T07:00:43.347Z,1010.45
2018-08-30T07:01:43.321Z,1010.47
2018-08-30T07:02:43.298Z,1010.49
2018-08-30T07:03:43.273Z,1010.44
2018-08-30T07:04:43.252Z,1010.45
2018-08-30T07:05:43.224Z,1010.44
2018-08-30T07:06:43.196Z,1010.43
2018-08-30T07:07:43.171Z,1010.50
2018-08-30T07:08:43.147Z,1010.48
2018-08-30T07:09:43.125Z,1010.43
2018-08-30T07:10:43.100Z,1010.47
2018-08-30T07:11:43.076Z,1010.51
2018-08-30T07:12:43.050Z,1010.54
2018-08-30T07:13:43.024Z,1010.58
2018-08-30T07:14:43.080Z,1010.55
2018-08-30T07:15:42.975Z,1010.60
2018-08-30T07:16:42.951Z,1010.58
2018-08-30T07:17:42.928Z,1010.63
2018-08-30T07:18:43.203Z,1010.64
2018-08-30T07:19:42.876Z,1010.59
2018-08-30T07:20:42.852Z,1010.60
2018-08-30T07:21:42.834Z,1010.60
2018-08-30T07:22:42.803Z,1010.58
2018-08-30T07:23:42.778Z,1010.61
2018-08-30T07:24:42.754Z,1010.59
2018-08-30T07:25:42.729Z,1010.52
2018-08-30T07:26:42.705Z,1010.62
2018-08-30T07:27:42.678Z,1010.60
2018-08-30T07:28:42.778Z,1010.63
2018-08-30T07:29:42.633Z,1010.66
2018-08-30T07:30:42.622Z,1010.70
2018-08-30T07:31:42.581Z,1010.74
2018-08-30T07:32:42.560Z,1010.70
2018-08-30T07:33:42.535Z,1010.67
2018-08-30T07:34:42.647Z,1010.67
2018-08-30T07:35:42.481Z,1010.70
2018-08-30T07:36:42.459Z,1010.74
2018-08-30T07:37:42.433Z,1010.77
2018-08-30T07:38:42.408Z,1010.79
2018-08-30T07:39:42.384Z,1010.79
2018-08-30T07:40:43.372Z,1010.77
2018-08-30T07:41:42.537Z,1010.73
2018-08-30T07:42:42.514Z,1010.81
2018-08-30T07:43:42.287Z,1010.83
2018-08-30T07:44:42.382Z,1010.77
2018-08-30T07:45:42.236Z,1010.76
2018-08-30T07:46:42.214Z,1010.77
2018-08-30T07:47:42.187Z,1010.82
2018-08-30T07:48:42.170Z,1010.86
2018-08-30T07:49:42.143Z,1010.85
2018-08-30T07:50:42.117Z,1010.92
2018-08-30T07:51:42.297Z,1010.92
2018-08-30T07:52:42.272Z,1010.87
2018-08-30T07:53:42.245Z,1010.92
2018-08-30T07:54:42.220Z,1010.91
2018-08-30T07:55:41.995Z,1010.99
2018-08-30T07:56:41.968Z,1011.06
2018-08-30T07:57:41.942Z,1011.02
2018-08-30T07:58:41.921Z,1011.05
2018-08-30T07:59:41.893Z,1011.01
2018-08-30T08:00:42.075Z,1011.01
2018-08-30T08:01:41.846Z,1011.03
2018-08-30T08:02:41.822Z,1011.12
2018-08-30T08:03:41.807Z,1010.98
2018-08-30T08:04:41.975Z,1011.09
2018-08-30T08:05:41.747Z,1011.05
2018-08-30T08:06:41.927Z,1011.12
2018-08-30T08:07:41.899Z,1011.10
2018-08-30T08:08:41.676Z,1011.06
2018-08-30T08:09:41.651Z,1011.14
2018-08-30T08:10:41.627Z,1011.12
2018-08-30T08:11:41.603Z,1011.12
2018-08-30T08:12:41.596Z,1011.05
2018-08-30T08:13:41.553Z,1011.09
2018-08-30T08:14:41.527Z,1011.15
2018-08-30T08:15:41.720Z,1011.35
2018-08-30T08:16:41.729Z,1011.12
2018-08-30T08:17:41.464Z,1011.15
2018-08-30T08:18:41.438Z,1011.09
2018-08-30T08:19:41.412Z,1011.14
2018-08-30T08:20:41.386Z,1011.11
2018-08-30T08:21:41.359Z,1011.11
2018-08-30T08:22:41.335Z,1011.17
2018-08-30T08:23:41.513Z,1011.11
2018-08-30T08:24:41.290Z,1011.07
2018-08-30T08:25:41.266Z,1011.23
2018-08-30T08:26:41.441Z,1011.15
2018-08-30T08:27:41.419Z,1011.12
2018-08-30T08:28:41.191Z,1011.20
2018-08-30T08:29:41.169Z,1011.27
2018-08-30T08:30:41.148Z,1011.17
2018-08-30T08:31:41.120Z,1011.12
2018-08-30T08:32:41.097Z,1011.25
2018-08-30T08:33:41.107Z,1011.19
2018-08-30T08:34:41.049Z,1011.21
2018-08-30T08:35:41.023Z,1011.09
2018-08-30T08:36:41.000Z,1011.08
2018-08-30T08:37:40.977Z,1010.98
2018-08-30T08:38:40.951Z,1011.20
2018-08-30T08:39:40.928Z,1011.21
2018-08-30T08:40:40.906Z,1011.29
2018-08-30T08:41:40.886Z,1011.32
2018-08-30T08:42:41.059Z,1011.22
2018-08-30T08:43:40.833Z,1011.27
2018-08-30T08:44:40.815Z,1011.31
2018-08-30T08:45:40.783Z,1011.27
2018-08-30T08:46:40.761Z,1011.40
2018-08-30T08:47:40.793Z,1011.42
2018-08-30T08:48:40.712Z,1011.38
2018-08-30T08:49:40.892Z,1011.48
2018-08-30T08:50:40.869Z,1011.30
2018-08-30T08:51:40.845Z,1011.42
2018-08-30T08:52:40.824Z,1011.38
2018-08-30T08:53:40.803Z,1011.45
2018-08-30T08:54:41.177Z,1011.52
2018-08-30T08:55:40.547Z,1011.48
2018-08-30T08:56:40.523Z,1011.55
2018-08-30T08:57:40.505Z,1011.46
2018-08-30T08:58:40.504Z,1011.42
2018-08-30T08:59:40.452Z,1011.46
2018-08-30T09:00:40.434Z,1011.47
2018-08-30T09:01:40.409Z,1011.45
2018-08-30T09:02:40.384Z,1011.43
2018-08-30T09:03:40.561Z,1011.45
2018-08-30T09:04:40.337Z,1011.46
2018-08-30T09:05:40.311Z,1011.47
2018-08-30T09:06:40.288Z,1011.45
2018-08-30T09:07:40.295Z,1011.40
2018-08-30T09:08:40.240Z,1011.43
2018-08-30T09:09:40.220Z,1011.39
2018-08-30T09:10:40.398Z,1011.45
2018-08-30T09:11:40.170Z,1011.37
2018-08-30T09:12:40.153Z,1011.33
2018-08-30T09:13:40.167Z,1011.23
2018-08-30T09:14:40.101Z,1011.30
2018-08-30T09:15:40.077Z,1011.37
2018-08-30T09:16:40.059Z,1011.31
2018-08-30T09:17:40.029Z,1011.41
2018-08-30T09:18:40.005Z,1011.36
2018-08-30T09:19:40.182Z,1011.36
2018-08-30T09:20:39.966Z,1011.40
2018-08-30T09:21:40.137Z,1011.41
2018-08-30T09:22:39.910Z,1011.38
2018-08-30T09:23:40.090Z,1011.54
2018-08-30T09:24:39.871Z,1011.50
2018-08-30T09:25:40.040Z,1011.53
2018-08-30T09:26:42.643Z,1011.56
2018-08-30T09:27:39.993Z,1011.73
2018-08-30T09:28:39.984Z,1011.76
2018-08-30T09:29:39.945Z,1011.77
2018-08-30T09:30:39.921Z,1011.92
2018-08-30T09:31:39.895Z,1011.96
2018-08-30T09:32:39.673Z,1012.04
2018-08-30T09:33:39.652Z,1012.03
2018-08-30T09:34:39.829Z,1011.94
2018-08-30T09:36:21.954Z,1011.92
2018-08-30T09:37:21.729Z,1011.86
2018-08-30T09:38:21.705Z,1011.88
2018-08-30T09:39:21.689Z,1011.95
2018-08-30T09:40:21.662Z,1011.89
2018-08-30T09:42:03.992Z,1011.92
2018-08-30T09:43:03.767Z,1011.97
2018-08-30T09:44:06.566Z,1011.91
2018-08-30T09:45:03.724Z,1011.86
2018-08-30T09:46:03.705Z,1011.84
2018-08-30T09:47:03.878Z,1011.89
2018-08-30T09:48:03.860Z,1011.88
2018-08-30T09:49:03.833Z,1011.85
2018-08-30T09:50:03.815Z,1011.86
2018-08-30T09:51:03.584Z,1011.85
2018-08-30T09:52:03.563Z,1011.82
2018-08-30T09:53:03.553Z,1011.89
2018-08-30T09:54:03.533Z,1011.84
2018-08-30T09:55:03.499Z,1011.86
2018-08-30T09:56:03.729Z,1011.93
2018-08-30T09:57:03.615Z,1011.96
2018-08-30T09:58:03.458Z,1012.00
2018-08-30T09:59:03.411Z,1011.95
2018-08-30T10:00:03.395Z,1011.92
2018-08-30T10:01:03.397Z,1011.96
2018-08-30T10:02:03.337Z,1012.08
2018-08-30T10:03:03.314Z,1011.99
2018-08-30T10:04:03.292Z,1011.95
2018-08-30T10:05:03.277Z,1011.91
2018-08-30T10:06:03.458Z,1011.90
2018-08-30T10:07:04.237Z,1011.98
2018-08-30T10:08:03.204Z,1011.97
2018-08-30T10:09:03.184Z,1011.91
2018-08-30T10:10:03.168Z,1011.88
2018-08-30T10:11:03.133Z,1011.89
2018-08-30T10:12:03.116Z,1011.91
2018-08-30T10:13:03.089Z,1011.95
2018-08-30T10:14:03.067Z,1011.93
2018-08-30T10:15:03.044Z,1012.04
2018-08-30T10:16:03.052Z,1012.10
2018-08-30T10:17:03.004Z,1012.09
2018-08-30T10:18:02.978Z,1012.15
2018-08-30T10:19:02.953Z,1012.19
2018-08-30T10:20:02.931Z,1012.27
2018-08-30T10:21:02.908Z,1012.27
2018-08-30T10:22:02.884Z,1012.26
2018-08-30T10:23:02.860Z,1012.26
2018-08-30T10:24:02.847Z,1012.21
2018-08-30T10:25:02.817Z,1012.18
2018-08-30T10:26:02.797Z,1012.13
2018-08-30T10:27:02.771Z,1012.06
2018-08-30T10:28:02.758Z,1012.10
2018-08-30T10:29:02.734Z,1012.08
2018-08-30T10:30:02.706Z,1012.10
2018-08-30T10:31:02.887Z,1012.16
2018-08-30T10:32:02.861Z,1012.26
2018-08-30T10:33:02.657Z,1012.12
2018-08-30T10:34:02.614Z,1012.28
2018-08-30T10:35:02.595Z,1012.02
2018-08-30T10:36:02.567Z,1012.18
2018-08-30T10:37:02.666Z,1012.12
2018-08-30T10:38:02.524Z,1012.12
2018-08-30T10:39:02.511Z,1012.02
2018-08-30T10:40:02.477Z,1011.96
2018-08-30T10:41:02.504Z,1012.07
2018-08-30T10:42:02.638Z,1012.01
2018-08-30T10:43:02.661Z,1011.98
2018-08-30T10:44:02.387Z,1011.99
2018-08-30T10:45:02.365Z,1012.12
2018-08-30T10:46:02.342Z,1012.11
2018-08-30T10:47:02.318Z,1012.22
2018-08-30T10:48:02.298Z,1012.20
2018-08-30T10:49:02.270Z,1012.26
2018-08-30T10:50:02.249Z,1012.30
2018-08-30T10:51:02.224Z,1012.32
2018-08-30T10:52:02.215Z,1012.28
2018-08-30T10:53:02.182Z,1012.17
2018-08-30T10:54:02.161Z,1012.29
2018-08-30T10:55:02.155Z,1012.35
2018-08-30T10:56:02.114Z,1012.38
2018-08-30T10:57:02.295Z,1012.22
2018-08-30T10:58:02.077Z,1012.23
2018-08-30T10:59:02.249Z,1012.18
2018-08-30T11:00:02.024Z,1012.22
2018-08-30T11:01:02.246Z,1012.18
2018-08-30T11:02:01.988Z,1012.21
2018-08-30T11:03:01.957Z,1012.29
2018-08-30T11:04:01.943Z,1012.18
2018-08-30T11:05:01.906Z,1012.18
2018-08-30T11:06:01.887Z,1012.29
2018-08-30T11:07:01.883Z,1012.26
2018-08-30T11:08:01.865Z,1012.23
2018-08-30T11:09:01.815Z,1012.35
2018-08-30T11:10:01.790Z,1012.40
2018-08-30T11:11:01.766Z,1012.32
2018-08-30T11:12:01.745Z,1012.47
2018-08-30T11:13:01.885Z,1012.42
2018-08-30T11:14:01.703Z,1012.39
2018-08-30T11:15:01.676Z,1012.40
2018-08-30T11:16:01.653Z,1012.41
2018-08-30T11:17:01.631Z,1012.26
2018-08-30T11:18:01.607Z,1012.41
2018-08-30T11:19:01.583Z,1012.49
2018-08-30T11:20:01.561Z,1012.51
2018-08-30T11:21:01.535Z,1012.53
2018-08-30T11:22:01.512Z,1012.63
2018-08-30T11:23:01.691Z,1012.53
2018-08-30T11:24:01.464Z,1012.64
2018-08-30T11:25:01.443Z,1012.85
2018-08-30T11:26:01.419Z,1012.61
2018-08-30T11:27:01.397Z,1012.69
2018-08-30T11:28:01.372Z,1012.63
2018-08-30T11:29:01.346Z,1012.69
2018-08-30T11:30:01.324Z,1012.73
2018-08-30T11:31:01.299Z,1012.58
2018-08-30T11:32:01.279Z,1012.63
2018-08-30T11:33:01.253Z,1012.69
2018-08-30T11:34:01.231Z,1012.61
2018-08-30T11:35:01.205Z,1012.75
2018-08-30T11:36:01.182Z,1012.77
2018-08-30T11:37:01.162Z,1012.76
2018-08-30T11:38:01.144Z,1012.78
2018-08-30T11:39:01.114Z,1012.83
2018-08-30T11:40:01.092Z,1012.87
2018-08-30T11:41:01.065Z,1012.89
2018-08-30T11:42:01.041Z,1012.80
2018-08-30T11:43:01.017Z,1012.72
2018-08-30T11:44:00.995Z,1012.85
2018-08-30T11:45:00.998Z,1012.82
2018-08-30T11:46:00.949Z,1012.98
2018-08-30T11:47:00.927Z,1012.97
2018-08-30T11:48:00.904Z,1012.97
2018-08-30T11:49:00.878Z,1012.90
2018-08-30T11:50:00.857Z,1012.94
2018-08-30T11:51:00.830Z,1012.91
2018-08-30T11:52:00.807Z,1012.98
2018-08-30T11:53:00.781Z,1012.93
2018-08-30T11:54:00.763Z,1012.90
2018-08-30T11:55:00.734Z,1012.85
2018-08-30T11:56:00.733Z,1012.85
2018-08-30T11:57:00.694Z,1012.84
2018-08-30T11:58:00.670Z,1012.86
2018-08-30T11:59:00.650Z,1012.89
2018-08-30T12:00:00.619Z,1012.87
2018-08-30T12:01:00.601Z,1012.91
2018-08-30T12:02:00.572Z,1013.00
2018-08-30T12:03:00.547Z,1012.95
2018-08-30T12:04:00.525Z,1012.96
2018-08-30T12:05:00.498Z,1013.04
2018-08-30T12:06:00.476Z,1012.93
2018-08-30T12:07:00.520Z,1012.93
2018-08-30T12:08:00.547Z,1012.96
2018-08-30T12:09:00.410Z,1012.99
2018-08-30T12:10:00.384Z,1012.91
2018-08-30T12:11:00.703Z,1012.99
2018-08-30T12:12:00.334Z,1013.12
2018-08-30T12:13:00.309Z,1013.18
2018-08-30T12:14:00.285Z,1013.18
2018-08-30T12:15:00.260Z,1013.19
2018-08-30T12:18:49.052Z,1013.15
2018-08-30T12:19:49.020Z,1013.29
2018-08-30T12:20:49.169Z,1013.26
2018-08-30T12:21:48.973Z,1013.22